createdAt,value
2022-09-24T00:04:39.733Z,11.30
2022-09-24T00:07:07.823Z,11.30
2022-09-24T00:09:35.622Z,11.30
2022-09-24T00:12:04.201Z,11.30
2022-09-24T00:14:32.702Z,11.30
2022-09-24T00:17:00.516Z,11.20
2022-09-24T00:19:28.311Z,11.20
2022-09-24T00:21:56.276Z,11.30
2022-09-24T00:24:42.640Z,11.30
2022-09-24T00:27:10.969Z,11.20
2022-09-24T00:29:38.831Z,11.20
2022-09-24T00:32:06.922Z,11.30
2022-09-24T00:34:34.874Z,11.20
2022-09-24T00:37:03.064Z,11.20
2022-09-24T00:39:30.877Z,11.10
2022-09-24T00:41:58.782Z,11.00
2022-09-24T00:44:41.490Z,11.00
2022-09-24T00:47:35.022Z,11.00
2022-09-24T00:50:06.277Z,10.90
2022-09-24T00:53:09.491Z,10.80
2022-09-24T00:55:38.606Z,10.80
2022-09-24T00:58:09.015Z,10.70
2022-09-24T01:00:44.902Z,10.60
2022-09-24T01:03:23.027Z,10.60
2022-09-24T01:05:51.780Z,10.50
2022-09-24T01:08:21.116Z,10.50
2022-09-24T01:10:54.000Z,10.60
2022-09-24T01:13:43.361Z,10.40
2022-09-24T01:16:53.477Z,10.40
2022-09-24T01:20:01.064Z,10.30
2022-09-24T01:23:03.500Z,10.20
2022-09-24T01:25:50.520Z,10.20
2022-09-24T01:28:43.276Z,10.20
2022-09-24T01:31:28.359Z,10.20
2022-09-24T01:33:59.834Z,10.10
2022-09-24T01:36:29.674Z,10.00
2022-09-24T01:38:59.745Z,9.90
2022-09-24T01:43:55.995Z,9.90
2022-09-24T01:51:34.783Z,9.70
2022-09-24T01:54:07.888Z,9.70
2022-09-24T01:57:04.569Z,9.60
2022-09-24T01:59:40.569Z,9.60
2022-09-24T02:02:30.669Z,9.50
2022-09-24T02:05:38.968Z,9.50
2022-09-24T02:08:23.865Z,9.30
2022-09-24T02:11:11.524Z,9.20
2022-09-24T02:13:48.352Z,9.20
2022-09-24T02:16:22.011Z,9.20
2022-09-24T02:18:54.896Z,9.20
2022-09-24T02:21:24.922Z,9.10
2022-09-24T02:24:21.426Z,9.10
2022-09-24T02:26:49.435Z,9.20
2022-09-24T02:29:18.625Z,9.10
2022-09-24T02:31:49.898Z,9.10
2022-09-24T02:34:25.920Z,9.00
2022-09-24T02:37:15.161Z,9.00
2022-09-24T02:39:43.694Z,8.90
2022-09-24T02:42:14.172Z,8.90
2022-09-24T02:44:41.926Z,8.90
2022-09-24T02:47:09.969Z,8.90
2022-09-24T02:49:37.762Z,8.90
2022-09-24T02:52:05.755Z,8.90
2022-09-24T02:54:34.198Z,8.90
2022-09-24T02:57:02.104Z,8.90
2022-09-24T02:59:29.938Z,9.00
2022-09-24T03:01:57.782Z,9.00
2022-09-24T03:04:26.309Z,8.90
2022-09-24T03:06:54.382Z,8.90
2022-09-24T03:09:22.216Z,8.80
2022-09-24T03:11:50.233Z,8.80
2022-09-24T03:14:18.161Z,8.80
2022-09-24T03:16:45.991Z,8.80
2022-09-24T03:19:13.779Z,8.80
2022-09-24T03:21:41.541Z,8.80
2022-09-24T03:24:09.361Z,8.70
2022-09-24T03:26:38.224Z,8.60
2022-09-24T03:29:05.997Z,8.50
2022-09-24T03:31:33.941Z,8.40
2022-09-24T03:34:01.851Z,8.40
2022-09-24T03:36:29.776Z,8.40
2022-09-24T03:38:58.025Z,8.40
2022-09-24T03:41:27.801Z,8.40
2022-09-24T03:43:56.403Z,8.40
2022-09-24T03:49:00.603Z,8.30
2022-09-24T03:53:56.838Z,8.20
2022-09-24T04:01:22.216Z,8.20
2022-09-24T04:13:51.779Z,8.10
2022-09-24T04:21:17.242Z,8.00
2022-09-24T04:26:13.636Z,8.00
2022-09-24T04:28:41.635Z,8.00
2022-09-24T04:33:38.160Z,8.00
2022-09-24T04:36:06.183Z,8.10
2022-09-24T04:41:09.627Z,8.10
2022-09-24T04:43:38.008Z,8.00
2022-09-24T04:46:06.778Z,8.00
2022-09-24T04:48:38.261Z,8.00
2022-09-24T04:51:08.644Z,8.00
2022-09-24T04:53:37.444Z,8.00
2022-09-24T04:56:12.159Z,8.00
2022-09-24T04:58:40.324Z,8.00
2022-09-24T05:01:08.471Z,7.90
2022-09-24T05:03:36.448Z,7.90
2022-09-24T05:06:04.274Z,7.90
2022-09-24T05:08:32.014Z,7.90
2022-09-24T05:11:00.790Z,8.00
2022-09-24T05:13:28.675Z,8.00
2022-09-24T05:15:56.498Z,8.10
2022-09-24T05:18:24.405Z,8.10
2022-09-24T05:20:52.532Z,8.10
2022-09-24T05:23:20.342Z,8.10
2022-09-24T05:26:06.504Z,8.10
2022-09-24T05:28:35.301Z,8.10
2022-09-24T05:31:03.150Z,8.10
2022-09-24T05:33:30.918Z,8.20
2022-09-24T05:35:59.109Z,8.30
2022-09-24T05:38:27.024Z,8.30
2022-09-24T05:40:54.957Z,8.40
2022-09-24T05:43:22.925Z,8.40
2022-09-24T05:45:51.035Z,8.40
2022-09-24T05:48:18.811Z,8.40
2022-09-24T05:50:46.968Z,8.40
2022-09-24T05:53:17.691Z,8.40
2022-09-24T05:55:45.505Z,8.40
2022-09-24T05:58:13.840Z,8.50
2022-09-24T06:00:41.765Z,8.50
2022-09-24T06:03:16.748Z,8.60
2022-09-24T06:05:50.730Z,8.60
2022-09-24T06:08:20.679Z,8.70
2022-09-24T06:13:21.025Z,8.90
2022-09-24T06:20:47.063Z,9.10
2022-09-24T06:23:15.034Z,9.40
2022-09-24T06:25:42.892Z,9.40
2022-09-24T06:30:39.636Z,9.50
2022-09-24T06:33:12.778Z,9.50
2022-09-24T06:35:42.846Z,9.50
2022-09-24T06:38:16.294Z,9.60
2022-09-24T06:40:47.039Z,9.70
2022-09-24T06:43:15.429Z,9.80
2022-09-24T06:45:43.214Z,9.90
2022-09-24T06:48:14.178Z,9.90
2022-09-24T06:50:45.528Z,9.90
2022-09-24T06:53:13.533Z,9.90
2022-09-24T06:55:42.275Z,10.10
2022-09-24T06:58:23.650Z,10.30
2022-09-24T07:01:02.948Z,10.40
2022-09-24T07:03:33.684Z,10.60
2022-09-24T07:06:04.667Z,10.80
2022-09-24T07:08:33.099Z,10.70
2022-09-24T07:11:01.636Z,10.70
2022-09-24T07:13:29.672Z,10.80
2022-09-24T07:15:57.483Z,10.80
2022-09-24T07:18:25.318Z,11.20
2022-09-24T07:20:57.085Z,11.20
2022-09-24T07:23:24.885Z,11.40
2022-09-24T07:25:57.382Z,11.50
2022-09-24T07:28:25.633Z,11.50
2022-09-24T07:30:58.632Z,11.70
2022-09-24T07:33:26.594Z,11.90
2022-09-24T07:35:54.352Z,11.90
2022-09-24T07:38:22.546Z,11.80
2022-09-24T07:40:50.488Z,11.80
2022-09-24T07:43:18.348Z,11.90
2022-09-24T07:45:46.408Z,11.90
2022-09-24T07:48:15.814Z,12.00
2022-09-24T07:50:43.705Z,12.00
2022-09-24T07:53:12.913Z,12.00
2022-09-24T07:55:41.523Z,12.10
2022-09-24T07:58:16.514Z,12.30
2022-09-24T08:00:44.481Z,12.40
2022-09-24T08:03:12.384Z,12.60
2022-09-24T08:05:47.906Z,12.40
2022-09-24T08:08:16.187Z,12.50
2022-09-24T08:13:12.364Z,12.60
2022-09-24T08:18:09.285Z,12.90
2022-09-24T08:20:38.772Z,13.10
2022-09-24T08:23:12.660Z,13.20
2022-09-24T08:25:40.551Z,13.20
2022-09-24T08:28:12.218Z,13.30
2022-09-24T08:33:09.692Z,13.40
2022-09-24T08:38:09.307Z,13.60
2022-09-24T08:40:51.124Z,13.50
2022-09-24T08:43:39.998Z,13.40
2022-09-24T08:46:42.898Z,13.40
2022-09-24T08:49:18.191Z,13.40
2022-09-24T08:52:31.246Z,13.40
2022-09-24T08:55:07.831Z,13.50
2022-09-24T08:58:06.224Z,13.50
2022-09-24T09:00:53.416Z,13.70
2022-09-24T09:03:39.627Z,13.70
2022-09-24T09:06:32.425Z,13.80
2022-09-24T09:09:22.902Z,13.90
2022-09-24T09:11:59.639Z,14.00
2022-09-24T09:14:54.934Z,14.10
2022-09-24T09:17:52.149Z,14.50
2022-09-24T09:20:30.782Z,14.50
2022-09-24T09:23:05.887Z,14.60
2022-09-24T09:25:36.969Z,14.80
2022-09-24T09:28:15.779Z,14.70
2022-09-24T09:31:04.547Z,14.90
2022-09-24T09:33:50.939Z,15.00
2022-09-24T09:36:53.356Z,15.00
2022-09-24T09:39:59.542Z,15.00
2022-09-24T09:42:36.046Z,15.30
2022-09-24T09:45:34.436Z,15.60
2022-09-24T09:48:03.677Z,15.50
2022-09-24T09:50:46.517Z,15.60
2022-09-24T09:53:31.242Z,15.50
2022-09-24T09:56:06.504Z,15.70
2022-09-24T09:58:37.884Z,15.60
2022-09-24T10:01:13.144Z,15.70
2022-09-24T10:03:47.096Z,15.70
2022-09-24T10:06:28.479Z,16.00
2022-09-24T10:09:17.527Z,16.00
2022-09-24T10:11:46.451Z,15.90
2022-09-24T10:14:26.466Z,15.80
2022-09-24T10:17:09.658Z,16.10
2022-09-24T10:19:50.497Z,16.30
2022-09-24T10:22:36.594Z,16.50
2022-09-24T10:25:05.293Z,16.20
2022-09-24T10:27:36.669Z,16.10
2022-09-24T10:30:35.113Z,16.10
2022-09-24T10:33:04.974Z,16.60
2022-09-24T10:35:38.765Z,16.30
2022-09-24T10:38:22.226Z,16.60
2022-09-24T10:40:51.992Z,17.20
2022-09-24T10:43:22.394Z,17.50
2022-09-24T10:46:10.036Z,17.90
2022-09-24T10:48:55.105Z,18.10
2022-09-24T10:51:57.825Z,18.20
2022-09-24T10:54:48.914Z,18.10
2022-09-24T10:57:31.949Z,18.50
2022-09-24T11:00:20.296Z,18.50
2022-09-24T11:03:06.250Z,18.90
2022-09-24T11:05:45.243Z,18.60
2022-09-24T11:08:46.537Z,18.80
2022-09-24T11:11:56.994Z,19.10
2022-09-24T11:14:38.734Z,19.40
2022-09-24T11:17:24.687Z,19.60
2022-09-24T11:20:13.302Z,19.80
2022-09-24T11:23:11.443Z,19.40
2022-09-24T11:25:51.728Z,19.40
2022-09-24T11:28:38.733Z,19.00
2022-09-24T11:31:50.474Z,19.20
2022-09-24T11:35:06.378Z,19.70
2022-09-24T11:37:40.064Z,20.00
2022-09-24T11:40:30.161Z,20.20
2022-09-24T11:43:26.559Z,20.30
2022-09-24T11:46:10.398Z,20.00
2022-09-24T11:49:10.105Z,20.20
2022-09-24T11:51:54.705Z,20.80
2022-09-24T11:55:12.101Z,21.10
2022-09-24T11:57:59.835Z,20.90
2022-09-24T12:00:40.621Z,20.10
2022-09-24T12:03:36.694Z,20.10
2022-09-24T12:06:47.405Z,20.10
2022-09-24T12:09:40.823Z,20.50
2022-09-24T12:12:23.254Z,21.00
2022-09-24T12:15:24.679Z,21.40
2022-09-24T12:18:02.780Z,21.60
2022-09-24T12:20:41.657Z,21.50
2022-09-24T12:23:13.562Z,21.80
2022-09-24T12:25:45.854Z,20.90
2022-09-24T12:28:37.566Z,21.30
2022-09-24T12:31:48.724Z,20.70
2022-09-24T12:34:31.278Z,20.60
2022-09-24T12:37:10.680Z,20.80
2022-09-24T12:40:35.925Z,20.50
2022-09-24T12:43:25.311Z,20.50
2022-09-24T12:46:02.415Z,20.50
2022-09-24T12:48:34.859Z,20.70
2022-09-24T12:51:06.705Z,20.70
2022-09-24T12:53:38.551Z,20.30
2022-09-24T12:56:07.490Z,20.20
2022-09-24T12:58:44.757Z,20.30
2022-09-24T13:01:23.327Z,20.60
2022-09-24T13:04:26.886Z,20.40
2022-09-24T13:06:55.425Z,20.10
2022-09-24T13:09:37.833Z,19.90
2022-09-24T13:12:21.854Z,20.00
2022-09-24T13:15:02.982Z,20.30
2022-09-24T13:17:34.193Z,20.10
2022-09-24T13:20:09.320Z,20.00
2022-09-24T13:22:38.071Z,20.40
2022-09-24T13:25:27.294Z,20.20
2022-09-24T13:28:04.713Z,20.40
2022-09-24T13:30:38.075Z,20.40
2022-09-24T13:33:10.009Z,20.30
2022-09-24T13:35:50.581Z,20.50
2022-09-24T13:38:22.521Z,20.50
2022-09-24T13:41:02.570Z,20.60
2022-09-24T13:43:47.483Z,20.30
2022-09-24T13:46:19.696Z,20.30
2022-09-24T13:49:11.246Z,20.00
2022-09-24T13:51:40.702Z,19.90
2022-09-24T13:54:30.271Z,20.30
2022-09-24T13:57:11.371Z,20.50
2022-09-24T13:59:39.272Z,20.30
2022-09-24T14:02:27.955Z,20.20
2022-09-24T14:05:01.145Z,20.20
2022-09-24T14:07:29.727Z,20.30
2022-09-24T14:10:13.880Z,20.50
2022-09-24T14:12:41.704Z,20.50
2022-09-24T14:15:18.909Z,20.60
2022-09-24T14:17:59.225Z,20.90
2022-09-24T14:20:34.335Z,20.80
2022-09-24T14:23:04.518Z,20.30
2022-09-24T14:25:36.661Z,20.60
2022-09-24T14:28:05.900Z,20.70
2022-09-24T14:30:40.304Z,20.40
2022-09-24T14:33:17.117Z,20.50
2022-09-24T14:35:48.958Z,20.30
2022-09-24T14:38:25.739Z,19.90
2022-09-24T14:41:18.791Z,19.90
2022-09-24T14:44:00.875Z,20.00
2022-09-24T14:46:36.519Z,20.30
2022-09-24T14:49:31.623Z,20.40
2022-09-24T14:52:07.250Z,20.70
2022-09-24T14:54:41.256Z,20.60
2022-09-24T14:57:36.372Z,20.70
2022-09-24T15:00:48.741Z,20.60
2022-09-24T15:03:20.811Z,20.40
2022-09-24T15:05:48.762Z,20.40
2022-09-24T15:08:22.531Z,20.30
2022-09-24T15:13:37.428Z,20.00
2022-09-24T15:16:32.391Z,19.70
2022-09-24T15:19:16.980Z,19.60
2022-09-24T15:21:49.117Z,19.70
2022-09-24T15:24:18.146Z,19.60
2022-09-24T15:26:50.701Z,19.50
2022-09-24T15:29:24.498Z,19.40
2022-09-24T15:31:54.356Z,19.50
2022-09-24T15:36:59.564Z,19.30
2022-09-24T15:39:28.600Z,19.30
2022-09-24T15:44:32.932Z,19.40
2022-09-24T15:47:01.779Z,19.30
2022-09-24T15:52:24.756Z,19.60
2022-09-24T15:54:55.319Z,19.60
2022-09-24T15:57:23.423Z,19.40
2022-09-24T15:59:51.359Z,19.30
2022-09-24T16:02:28.944Z,19.00
2022-09-24T16:05:02.679Z,18.80
2022-09-24T16:07:31.962Z,18.90
2022-09-24T16:09:59.995Z,18.80
2022-09-24T16:12:28.372Z,18.50
2022-09-24T16:14:59.301Z,18.70
2022-09-24T16:17:28.776Z,18.50
2022-09-24T16:22:25.198Z,17.90
2022-09-24T16:24:54.266Z,17.60
2022-09-24T16:27:22.619Z,17.40
2022-09-24T16:32:18.679Z,17.40
2022-09-24T16:34:46.914Z,17.40
2022-09-24T16:37:16.787Z,17.30
2022-09-24T16:42:12.837Z,17.10
2022-09-24T16:44:40.811Z,17.10
2022-09-24T16:47:08.851Z,17.20
2022-09-24T16:54:34.370Z,17.00
2022-09-24T16:59:31.359Z,17.10
2022-09-24T17:01:59.989Z,17.20
2022-09-24T17:04:28.477Z,17.20
2022-09-24T17:06:59.187Z,17.10
2022-09-24T17:12:14.067Z,17.00
2022-09-24T17:14:42.053Z,17.00
2022-09-24T17:17:09.932Z,15.60
2022-09-24T17:19:37.763Z,16.80
2022-09-24T17:22:05.637Z,16.70
2022-09-24T17:24:35.970Z,16.80
2022-09-24T17:27:03.870Z,16.60
2022-09-24T17:29:31.991Z,16.40
2022-09-24T17:32:00.116Z,16.40
2022-09-24T17:34:28.196Z,16.40
2022-09-24T17:36:57.132Z,16.40
2022-09-24T17:39:25.279Z,16.30
2022-09-24T17:41:53.078Z,16.30
2022-09-24T17:44:21.009Z,16.20
2022-09-24T17:46:48.861Z,16.10
2022-09-24T17:49:16.814Z,16.10
2022-09-24T17:51:47.550Z,16.10
2022-09-24T17:54:21.238Z,16.00
2022-09-24T17:56:49.664Z,15.90
2022-09-24T17:59:17.517Z,15.80
2022-09-24T18:01:46.493Z,15.80
2022-09-24T18:04:19.319Z,15.80
2022-09-24T18:06:49.631Z,15.80
2022-09-24T18:09:18.825Z,15.70
2022-09-24T18:11:52.518Z,15.60
2022-09-24T18:14:22.737Z,15.60
2022-09-24T18:16:51.212Z,15.50
2022-09-24T18:19:19.252Z,15.40
2022-09-24T18:21:49.256Z,15.40
2022-09-24T18:24:17.542Z,15.30
2022-09-24T18:26:49.505Z,15.20
2022-09-24T18:29:20.160Z,15.10
2022-09-24T18:31:48.387Z,15.10
2022-09-24T18:34:17.733Z,15.10
2022-09-24T18:36:48.276Z,15.10
2022-09-24T18:39:21.778Z,15.10
2022-09-24T18:41:52.067Z,15.00
2022-09-24T18:44:19.948Z,15.00
2022-09-24T18:46:48.141Z,15.00
2022-09-24T18:49:17.470Z,15.00
2022-09-24T18:51:46.614Z,15.00
2022-09-24T18:54:15.710Z,15.00
2022-09-24T18:56:43.953Z,14.90
2022-09-24T18:59:18.439Z,14.80
2022-09-24T19:01:48.664Z,14.70
2022-09-24T19:04:18.208Z,14.40
2022-09-24T19:06:50.837Z,14.10
2022-09-24T19:09:20.480Z,13.90
2022-09-24T19:14:40.244Z,13.80
2022-09-24T19:17:08.286Z,13.90
2022-09-24T19:19:36.834Z,13.90
2022-09-24T19:22:04.724Z,13.90
2022-09-24T19:24:32.756Z,13.70
2022-09-24T19:27:00.589Z,13.60
2022-09-24T19:29:28.563Z,13.60
2022-09-24T19:31:56.431Z,13.80
2022-09-24T19:34:24.207Z,13.80
2022-09-24T19:36:52.254Z,13.80
2022-09-24T19:39:20.234Z,13.80
2022-09-24T19:41:51.595Z,13.80
2022-09-24T19:44:19.598Z,13.80
2022-09-24T19:46:47.449Z,13.80
2022-09-24T19:49:15.332Z,13.80
2022-09-24T19:51:43.330Z,13.80
2022-09-24T19:54:11.624Z,13.80
2022-09-24T19:56:40.146Z,13.80
2022-09-24T20:04:07.882Z,13.80
2022-09-24T20:06:37.681Z,13.80
2022-09-24T20:09:06.997Z,13.80
2022-09-24T20:11:35.801Z,13.60
2022-09-24T20:21:38.237Z,13.60
2022-09-24T20:24:10.010Z,13.60
2022-09-24T20:29:25.949Z,13.60
2022-09-24T20:31:56.239Z,13.60
2022-09-24T20:34:28.836Z,13.60
2022-09-24T20:37:01.665Z,13.60
2022-09-24T20:39:30.469Z,13.60
2022-09-24T20:42:06.058Z,13.60
2022-09-24T20:44:34.623Z,13.60
2022-09-24T20:47:02.491Z,13.60
2022-09-24T20:49:30.625Z,13.60
2022-09-24T20:51:58.634Z,13.60
2022-09-24T20:54:28.701Z,13.60
2022-09-24T20:56:57.308Z,13.60
2022-09-24T20:59:26.743Z,13.60
2022-09-24T21:01:55.320Z,13.50
2022-09-24T21:04:24.341Z,13.50
2022-09-24T21:06:52.580Z,13.50
2022-09-24T21:09:20.552Z,13.40
2022-09-24T21:11:50.570Z,13.50
2022-09-24T21:14:19.185Z,13.50
2022-09-24T21:16:47.480Z,13.50
2022-09-24T21:19:16.083Z,13.50
2022-09-24T21:21:43.976Z,13.50
2022-09-24T21:24:15.383Z,13.50
2022-09-24T21:26:45.355Z,13.50
2022-09-24T21:29:18.219Z,13.50
2022-09-24T21:31:47.808Z,13.50
2022-09-24T21:34:19.865Z,13.50
2022-09-24T21:36:48.228Z,13.40
2022-09-24T21:39:31.347Z,13.40
2022-09-24T21:41:59.444Z,13.50
2022-09-24T21:44:34.597Z,13.40
2022-09-24T21:47:03.475Z,13.40
2022-09-24T21:49:33.663Z,13.40
2022-09-24T21:52:04.935Z,13.40
2022-09-24T21:54:33.621Z,13.40
2022-09-24T21:57:01.704Z,13.40
2022-09-24T21:59:47.802Z,13.40
2022-09-24T22:02:15.791Z,13.40
2022-09-24T22:04:44.430Z,13.40
2022-09-24T22:07:12.880Z,13.40
2022-09-24T22:09:41.110Z,13.40
2022-09-24T22:12:10.606Z,13.30
2022-09-24T22:14:43.282Z,13.40
2022-09-24T22:17:11.751Z,13.40
2022-09-24T22:19:40.235Z,13.40
2022-09-24T22:22:08.101Z,13.40
2022-09-24T22:24:36.545Z,13.40
2022-09-24T22:27:05.000Z,13.40
2022-09-24T22:29:32.798Z,13.40
2022-09-24T22:32:00.693Z,13.40
2022-09-24T22:34:47.081Z,13.40
2022-09-24T22:37:14.948Z,13.40
2022-09-24T22:39:42.882Z,13.40
2022-09-24T22:42:14.330Z,13.40
2022-09-24T22:44:42.194Z,13.40
2022-09-24T22:47:09.989Z,13.30
2022-09-24T22:49:38.104Z,13.40
2022-09-24T22:52:05.970Z,13.40
2022-09-24T22:54:33.813Z,13.30
2022-09-24T22:57:01.774Z,13.40
2022-09-24T22:59:29.613Z,13.40
2022-09-24T23:01:57.405Z,13.40
2022-09-24T23:04:25.341Z,13.30
2022-09-24T23:06:53.589Z,13.30
2022-09-24T23:09:21.625Z,13.40
2022-09-24T23:11:49.535Z,13.40
2022-09-24T23:14:17.328Z,13.40
2022-09-24T23:16:46.888Z,13.40
2022-09-24T23:19:18.760Z,13.40
2022-09-24T23:21:47.072Z,13.30
2022-09-24T23:24:18.697Z,13.30
2022-09-24T23:26:47.164Z,13.30
2022-09-24T23:29:15.779Z,13.30
2022-09-24T23:31:43.818Z,13.30
2022-09-24T23:34:14.220Z,13.30
2022-09-24T23:36:42.609Z,13.30
2022-09-24T23:39:10.969Z,13.30
2022-09-24T23:41:38.761Z,13.30
2022-09-24T23:44:06.919Z,13.30
2022-09-24T23:46:34.935Z,13.30
2022-09-24T23:49:03.343Z,13.30
2022-09-24T23:51:31.353Z,13.40
2022-09-24T23:53:59.290Z,13.30
2022-09-24T23:56:28.461Z,13.40
2022-09-24T23:58:56.914Z,13.40
